Airfield :







YOU CAN JOIN US ON...

 
LOGIN :

Register | Disclaimer

   EN    FR    IT 

 









Legend :    VFR   Marginal VFR   IFR   Intensive IFR   Very Intensive IFR
Visi :
Ceiling :
>= 8 km
>= 3000ft
5 to 8 km
1000 to 3000 ft
1500m to 5 km
500 to 1000 ft
800 to 1500m
200 to 500 ft
< 800m
< 200 ft
Symbols :   Thunderstorms  Fog  Heavy snow  Heavy precipitations  Wind > 20 kt







- Airport Elevation : 988 ft


KFVE - Northern Aroostook Regional

CURRENT METAR :
  • 230353Z AUTO 03018G27KT 10SM BKN016 OVC024 02/M01 A2909 RMK AO2 PK WND 04030/0323 SLP857 T00221011 $

EXPIRED METARs :
  • 230253Z AUTO 03015G26KT 10SM BKN017 BKN022 OVC035 03/M01 A2910 RMK AO2 PK WND 04033/0220 SNE14 SLP858 P0000 60005 T00281006 58010 $
  • 230209Z AUTO 04021G32KT 9SM -SN SCT013 BKN018 OVC032 02/ A2909 RMK AO2 PK WND 03032/0208 P0000 T0022 $
  • 230153Z AUTO 04015G30KT 9SM -SN FEW008 BKN013 OVC018 02/ A2911 RMK AO2 PK WND 04030/0150 SLP863 P0001 T0022 $
  • 230128Z AUTO 03016G28KT 3SM -SN FEW008 OVC014 02/ A2911 RMK AO2 PK WND 05028/0122 P0001 T0022 $
  • 230117Z AUTO 03014G26KT 2 1/2SM -SN FEW006 OVC012 02/ A2912 RMK AO2 PK WND 02026/0107 P0001 T0017 $

TAF KFVE
Valid from the 23 at 03:00 until the 24 at 00:00 UTC


230306Z 2303/2324 03014G26KT 3SM -SN OVC008
FM230500 02013G22KT 1SM -SN OVC006
FM230900 36012G23KT 2SM -SN OVC010
FM231400 35015G30KT 3SM -SHSN OVC015
FM231700 33015G30KT 6SM -SHSN OVC020
FM232200 31013G27KT P6SM BKN022
KZBW FIR / North America



MET'MAP, your aeronautical weather chart ! - Copyright ORBIFLY December 2007 - Disclaimer

ORBIFLY MET'MAP TEAM :

Programming & Development : Alexandra Zaïnal
Concept & Development : Baudouin d'Aumeries
Co-Development & Prog : Marc-Olivier Méhu
Technical & hardware support : Manuel Goepfert

Contact : metmap@orbifly.com




SOURCES & CREDITS :

   NOAA